createdAt,value
2022-08-17T00:02:51.495Z,98439.00
2022-08-17T00:05:49.942Z,98440.80
2022-08-17T00:08:47.422Z,98441.60
2022-08-17T00:12:03.985Z,98438.60
2022-08-17T00:15:02.333Z,98438.80
2022-08-17T00:17:59.825Z,98437.00
2022-08-17T00:20:57.444Z,98434.40
2022-08-17T00:23:55.050Z,98429.80
2022-08-17T00:26:52.537Z,98426.60
2022-08-17T00:29:50.026Z,98428.80
2022-08-17T00:33:15.239Z,98428.40
2022-08-17T00:36:06.107Z,98427.60
2022-08-17T00:39:03.604Z,98424.00
2022-08-17T00:42:01.083Z,98421.80
2022-08-17T00:44:58.585Z,98420.00
2022-08-17T00:47:56.089Z,98423.40
2022-08-17T00:50:53.588Z,98419.20
2022-08-17T00:53:51.485Z,98422.00
2022-08-17T00:56:48.958Z,98421.80
2022-08-17T00:59:55.979Z,98430.40
2022-08-17T01:03:00.996Z,98429.00
2022-08-17T01:05:58.495Z,98427.20
2022-08-17T01:08:57.608Z,98426.80
2022-08-17T01:11:55.505Z,98433.40
2022-08-17T01:14:52.983Z,98433.00
2022-08-17T01:17:50.479Z,98436.00
2022-08-17T01:20:48.829Z,98435.40
2022-08-17T01:23:46.498Z,98437.00
2022-08-17T01:26:43.970Z,98443.00
2022-08-17T01:29:41.462Z,98444.20
2022-08-17T01:32:38.947Z,98449.60
2022-08-17T01:35:36.428Z,98449.60
2022-08-17T01:38:33.909Z,98450.00
2022-08-17T01:41:31.390Z,98449.40
2022-08-17T01:44:29.082Z,98455.20
2022-08-17T01:47:26.572Z,98457.40
2022-08-17T01:50:27.332Z,98450.80
2022-08-17T01:53:24.799Z,98456.00
2022-08-17T01:56:22.295Z,98457.40
2022-08-17T01:59:19.863Z,98458.60
2022-08-17T02:02:30.382Z,98460.00
2022-08-17T02:05:29.083Z,98456.80
2022-08-17T02:08:38.665Z,98457.40
2022-08-17T02:11:37.931Z,98455.40
2022-08-17T02:14:35.397Z,98460.00
2022-08-17T02:17:32.901Z,98458.80
2022-08-17T02:20:41.985Z,98459.80
2022-08-17T02:23:40.666Z,98457.60
2022-08-17T02:26:38.162Z,98453.40
2022-08-17T02:29:35.617Z,98455.00
2022-08-17T02:32:33.110Z,98457.00
2022-08-17T02:35:30.592Z,98457.40
2022-08-17T02:38:28.094Z,98459.00
2022-08-17T02:41:25.581Z,98461.40
2022-08-17T02:44:38.846Z,98460.80
2022-08-17T02:47:37.602Z,98452.20
2022-08-17T02:50:35.064Z,98454.60
2022-08-17T02:53:35.987Z,98453.40
2022-08-17T02:56:33.776Z,98457.80
2022-08-17T02:59:31.234Z,98454.40
2022-08-17T03:02:28.715Z,98451.60
2022-08-17T03:05:26.191Z,98450.80
2022-08-17T03:08:25.755Z,98448.60
2022-08-17T03:11:23.673Z,98446.00
2022-08-17T03:14:21.159Z,98445.60
2022-08-17T03:17:23.782Z,98443.00
2022-08-17T03:20:21.263Z,98444.40
2022-08-17T03:23:18.822Z,98445.00
2022-08-17T03:26:21.879Z,98447.60
2022-08-17T03:29:20.050Z,98445.40
2022-08-17T03:32:17.602Z,98445.80
2022-08-17T03:35:15.059Z,98443.60
2022-08-17T03:38:17.408Z,98440.20
2022-08-17T03:41:15.120Z,98449.40
2022-08-17T03:44:12.608Z,98447.20
2022-08-17T03:47:27.998Z,98446.20
2022-08-17T03:50:42.997Z,98450.00
2022-08-17T03:53:58.402Z,98453.00
2022-08-17T03:56:55.870Z,98454.00
2022-08-17T03:59:53.428Z,98452.80
2022-08-17T04:02:50.959Z,98447.40
2022-08-17T04:05:49.005Z,98451.20
2022-08-17T04:08:46.492Z,98455.80
2022-08-17T04:11:43.974Z,98455.20
2022-08-17T04:14:53.347Z,98454.40
2022-08-17T04:17:52.063Z,98453.60
2022-08-17T04:20:49.581Z,98455.60
2022-08-17T04:23:47.078Z,98456.20
2022-08-17T04:26:53.176Z,98462.40
2022-08-17T04:29:54.665Z,98461.60
2022-08-17T04:33:03.782Z,98458.00
2022-08-17T04:36:04.340Z,98454.60
2022-08-17T04:39:01.967Z,98454.60
2022-08-17T04:42:17.131Z,98460.20
2022-08-17T04:45:14.659Z,98461.60
2022-08-17T04:48:12.138Z,98462.20
2022-08-17T04:51:10.467Z,98465.80
2022-08-17T04:54:08.152Z,98471.40
2022-08-17T04:57:05.630Z,98470.00
2022-08-17T05:00:03.241Z,98469.60
2022-08-17T05:03:00.772Z,98468.80
2022-08-17T05:05:58.253Z,98475.40
2022-08-17T05:08:55.743Z,98475.00
2022-08-17T05:11:53.233Z,98473.80
2022-08-17T05:14:52.888Z,98480.20
2022-08-17T05:17:50.362Z,98477.40
2022-08-17T05:20:47.842Z,98479.60
2022-08-17T05:23:47.724Z,98479.80
2022-08-17T05:26:52.650Z,98477.80
2022-08-17T05:29:50.113Z,98481.40
2022-08-17T05:32:47.604Z,98482.00
2022-08-17T05:35:47.104Z,98486.00
2022-08-17T05:38:44.583Z,98489.40
2022-08-17T05:41:42.179Z,98488.00
2022-08-17T05:44:39.887Z,98490.20
2022-08-17T05:47:37.364Z,98478.40
2022-08-17T05:50:34.854Z,98483.80
2022-08-17T05:53:32.402Z,98479.00
2022-08-17T05:56:33.749Z,98480.40
2022-08-17T05:59:31.240Z,98480.40
2022-08-17T06:02:28.719Z,98476.40
2022-08-17T06:05:26.206Z,98471.20
2022-08-17T06:08:23.732Z,98471.80
2022-08-17T06:11:21.241Z,98468.20
2022-08-17T06:14:20.390Z,98470.20
2022-08-17T06:17:17.873Z,98475.80
2022-08-17T06:20:15.460Z,98472.00
2022-08-17T06:23:13.309Z,98469.00
2022-08-17T06:26:10.793Z,98468.60
2022-08-17T06:29:09.053Z,98471.80
2022-08-17T06:32:17.364Z,98475.20
2022-08-17T06:35:14.905Z,98481.40
2022-08-17T06:38:17.323Z,98481.80
2022-08-17T06:41:29.922Z,98482.60
2022-08-17T06:44:43.402Z,98481.40
2022-08-17T06:47:45.501Z,98479.40
2022-08-17T06:50:42.995Z,98482.60
2022-08-17T06:53:40.451Z,98486.20
2022-08-17T06:56:52.987Z,98483.60
2022-08-17T06:59:56.402Z,98485.80
2022-08-17T07:02:54.525Z,98481.80
2022-08-17T07:05:51.987Z,98486.40
2022-08-17T07:08:49.965Z,98484.60
2022-08-17T07:11:47.427Z,98481.40
2022-08-17T07:14:44.919Z,98481.60
2022-08-17T07:17:47.420Z,98488.80
2022-08-17T07:20:45.961Z,98492.00
2022-08-17T07:23:43.445Z,98491.40
2022-08-17T07:26:40.989Z,98490.40
2022-08-17T07:29:38.473Z,98490.60
2022-08-17T07:32:35.946Z,98490.40
2022-08-17T07:35:40.928Z,98493.60
2022-08-17T07:38:41.538Z,98497.00
2022-08-17T07:41:57.232Z,98501.60
2022-08-17T07:44:56.694Z,98498.20
2022-08-17T07:48:11.899Z,98497.60
2022-08-17T07:51:13.279Z,98494.40
2022-08-17T07:54:14.571Z,98496.60
2022-08-17T07:57:13.389Z,98498.40
2022-08-17T08:00:16.465Z,98501.60
2022-08-17T08:03:14.863Z,98499.80
2022-08-17T08:06:12.892Z,98496.40
2022-08-17T08:09:10.387Z,98497.80
2022-08-17T08:12:07.858Z,98495.60
2022-08-17T08:15:13.570Z,98498.20
2022-08-17T08:18:11.039Z,98501.20
2022-08-17T08:21:09.574Z,98501.80
2022-08-17T08:24:07.045Z,98500.80
2022-08-17T08:27:07.339Z,98498.60
2022-08-17T08:30:05.412Z,98498.20
2022-08-17T08:33:04.312Z,98502.20
2022-08-17T08:36:03.521Z,98500.40
2022-08-17T08:39:01.009Z,98502.40
2022-08-17T08:41:58.996Z,98499.20
2022-08-17T08:45:03.534Z,98506.80
2022-08-17T08:48:05.295Z,98503.60
2022-08-17T08:51:03.120Z,98507.20
2022-08-17T08:54:00.670Z,98506.60
2022-08-17T08:57:23.187Z,98512.00
2022-08-17T09:00:20.873Z,98509.60
2022-08-17T09:03:36.556Z,98514.80
2022-08-17T09:06:40.592Z,98515.60
2022-08-17T09:09:39.697Z,98514.20
2022-08-17T09:12:37.847Z,98518.60
2022-08-17T09:15:35.394Z,98516.80
2022-08-17T09:19:00.223Z,98517.80
2022-08-17T09:21:52.658Z,98520.00
2022-08-17T09:24:50.226Z,98527.40
2022-08-17T09:27:47.819Z,98526.40
2022-08-17T09:30:45.632Z,98527.40
2022-08-17T09:33:43.550Z,98529.40
2022-08-17T09:36:41.050Z,98524.60
2022-08-17T09:39:38.742Z,98525.00
2022-08-17T09:42:36.268Z,98526.00
2022-08-17T09:45:35.507Z,98522.40
2022-08-17T09:48:33.179Z,98512.60
2022-08-17T09:51:31.604Z,98517.00
2022-08-17T09:54:39.631Z,98519.60
2022-08-17T09:57:37.762Z,98523.80
2022-08-17T10:00:35.254Z,98520.00
2022-08-17T10:03:34.473Z,98524.40
2022-08-17T10:06:31.972Z,98522.60
2022-08-17T10:09:29.457Z,98512.60
2022-08-17T10:12:29.814Z,98518.60
2022-08-17T10:15:27.895Z,98517.40
2022-08-17T10:18:25.518Z,98514.00
2022-08-17T10:21:47.392Z,98512.40
2022-08-17T10:25:23.815Z,98504.00
2022-08-17T10:28:22.774Z,98499.00
2022-08-17T10:31:39.489Z,98504.00
2022-08-17T10:34:38.895Z,98501.60
2022-08-17T10:37:40.303Z,98498.60
2022-08-17T10:40:37.837Z,98497.60
2022-08-17T10:43:35.331Z,98499.60
2022-08-17T10:46:33.637Z,98493.20
2022-08-17T10:49:32.833Z,98495.80
2022-08-17T10:52:30.702Z,98496.40
2022-08-17T10:55:29.361Z,98495.00
2022-08-17T10:58:28.808Z,98489.00
2022-08-17T11:01:26.316Z,98483.00
2022-08-17T11:04:25.138Z,98487.40
2022-08-17T11:07:22.752Z,98488.80
2022-08-17T11:10:20.249Z,98490.00
2022-08-17T11:13:18.531Z,98488.60
2022-08-17T11:16:16.079Z,98487.40
2022-08-17T11:19:13.566Z,98487.00
2022-08-17T11:22:11.143Z,98481.60
2022-08-17T11:25:08.958Z,98478.80
2022-08-17T11:28:06.433Z,98478.00
2022-08-17T11:31:03.917Z,98479.00
2022-08-17T11:34:02.261Z,98475.80
2022-08-17T11:37:02.069Z,98477.40
2022-08-17T11:40:06.013Z,98477.80
2022-08-17T11:43:03.716Z,98474.20
2022-08-17T11:46:02.247Z,98473.80
2022-08-17T11:49:18.142Z,98470.60
2022-08-17T11:52:15.641Z,98470.20
2022-08-17T11:55:34.697Z,98466.20
2022-08-17T11:58:30.620Z,98460.20
2022-08-17T12:01:29.151Z,98463.60
2022-08-17T12:04:26.682Z,98458.80
2022-08-17T12:07:24.432Z,98459.80
2022-08-17T12:10:21.925Z,98455.00
2022-08-17T12:13:19.409Z,98448.20
2022-08-17T12:16:16.895Z,98446.60
2022-08-17T12:19:14.379Z,98450.60
2022-08-17T12:22:11.842Z,98444.40
2022-08-17T12:25:10.536Z,98443.20
2022-08-17T12:28:08.204Z,98443.60
2022-08-17T12:31:05.889Z,98443.80
2022-08-17T12:34:03.400Z,98435.60
2022-08-17T12:37:00.905Z,98431.60
2022-08-17T12:39:58.438Z,98428.60
2022-08-17T12:42:55.978Z,98425.40
2022-08-17T12:45:53.461Z,98416.40
2022-08-17T12:48:59.601Z,98419.60
2022-08-17T12:51:57.715Z,98427.20
2022-08-17T12:54:55.200Z,98423.40
2022-08-17T12:57:54.383Z,98433.00
2022-08-17T13:00:51.974Z,98428.80
2022-08-17T13:03:50.384Z,98428.20
2022-08-17T13:06:47.886Z,98425.20
2022-08-17T13:09:45.394Z,98429.40
2022-08-17T13:12:43.000Z,98429.80
2022-08-17T13:15:44.862Z,98422.00
2022-08-17T13:18:42.725Z,98418.60
2022-08-17T13:21:40.200Z,98416.40
2022-08-17T13:24:38.509Z,98421.80
2022-08-17T13:27:36.235Z,98422.20
2022-08-17T13:30:34.187Z,98411.20
2022-08-17T13:33:44.532Z,98409.00
2022-08-17T13:36:44.352Z,98410.00
2022-08-17T13:39:42.851Z,98401.40
2022-08-17T13:42:50.548Z,98402.80
2022-08-17T13:45:51.202Z,98401.00
2022-08-17T13:48:48.865Z,98394.40
2022-08-17T13:51:46.361Z,98397.40
2022-08-17T13:54:43.822Z,98395.20
2022-08-17T13:57:41.327Z,98392.60
2022-08-17T14:00:39.731Z,98390.40
2022-08-17T14:03:37.216Z,98393.80
2022-08-17T14:06:52.134Z,98395.40
2022-08-17T14:09:51.352Z,98393.80
2022-08-17T14:12:50.390Z,98398.60
2022-08-17T14:15:55.675Z,98401.20
2022-08-17T14:18:56.716Z,98402.00
2022-08-17T14:21:56.672Z,98402.60
2022-08-17T14:24:54.248Z,98402.80
2022-08-17T14:27:52.893Z,98403.60
2022-08-17T14:30:51.706Z,98397.00
2022-08-17T14:33:49.214Z,98398.40
2022-08-17T14:36:48.531Z,98395.80
2022-08-17T14:39:46.373Z,98396.40
2022-08-17T14:42:43.884Z,98391.20
2022-08-17T14:45:43.575Z,98387.60
2022-08-17T14:48:41.077Z,98384.40
2022-08-17T14:51:43.613Z,98385.00
2022-08-17T14:54:45.707Z,98386.00
2022-08-17T14:57:44.290Z,98395.80
2022-08-17T15:00:43.743Z,98394.80
2022-08-17T15:03:41.370Z,98395.40
2022-08-17T15:06:41.436Z,98398.80
2022-08-17T15:09:39.166Z,98400.40
2022-08-17T15:12:36.709Z,98401.40
2022-08-17T15:15:34.208Z,98401.60
2022-08-17T15:18:31.715Z,98401.60
2022-08-17T15:21:29.238Z,98403.80
2022-08-17T15:24:26.709Z,98405.80
2022-08-17T15:27:32.201Z,98405.00
2022-08-17T15:30:54.608Z,98403.80
2022-08-17T15:40:42.362Z,98399.00
2022-08-17T15:43:39.854Z,98401.80
2022-08-17T15:46:37.317Z,98399.80
2022-08-17T15:49:37.040Z,98407.80
2022-08-17T15:52:40.322Z,98402.20
2022-08-17T15:55:38.737Z,98405.00
2022-08-17T15:58:36.218Z,98409.00
2022-08-17T16:03:01.590Z,98396.20
2022-08-17T16:04:51.239Z,98394.60
2022-08-17T16:07:49.134Z,98395.60
2022-08-17T16:10:46.782Z,98392.20
2022-08-17T16:13:54.460Z,98392.20
2022-08-17T16:16:52.882Z,98395.40
2022-08-17T16:19:50.419Z,98393.40
2022-08-17T16:22:47.920Z,98392.00
2022-08-17T16:25:53.471Z,98394.40
2022-08-17T16:28:52.117Z,98395.80
2022-08-17T16:31:49.612Z,98392.20
2022-08-17T16:34:47.093Z,98398.40
2022-08-17T16:37:45.445Z,98398.80
2022-08-17T16:40:44.174Z,98400.60
2022-08-17T16:43:45.815Z,98397.00
2022-08-17T16:46:45.855Z,98396.80
2022-08-17T16:49:43.785Z,98398.00
2022-08-17T16:52:41.314Z,98400.80
2022-08-17T16:55:38.814Z,98404.40
2022-08-17T16:58:37.781Z,98405.40
2022-08-17T17:01:38.852Z,98412.40
2022-08-17T17:04:38.462Z,98409.60
2022-08-17T17:07:35.950Z,98402.00
2022-08-17T17:10:33.499Z,98403.40
2022-08-17T17:13:32.344Z,98408.60
2022-08-17T17:16:29.835Z,98407.20
2022-08-17T17:19:35.068Z,98407.20
2022-08-17T17:22:34.631Z,98410.00
2022-08-17T17:25:32.252Z,98411.60
2022-08-17T17:28:29.704Z,98408.40
2022-08-17T17:31:27.190Z,98408.00
2022-08-17T17:34:24.635Z,98406.60
2022-08-17T17:37:22.546Z,98406.20
2022-08-17T17:40:20.609Z,98407.60
2022-08-17T17:43:37.588Z,98406.40
2022-08-17T17:46:37.598Z,98409.40
2022-08-17T17:49:35.553Z,98405.80
2022-08-17T17:52:36.300Z,98410.00
2022-08-17T17:55:34.156Z,98409.40
2022-08-17T17:58:32.858Z,98410.40
2022-08-17T18:01:31.367Z,98408.80
2022-08-17T18:04:29.628Z,98416.80
2022-08-17T18:07:28.242Z,98417.00
2022-08-17T18:10:29.577Z,98417.20
2022-08-17T18:13:28.222Z,98426.00
2022-08-17T18:16:25.701Z,98431.20
2022-08-17T18:19:25.313Z,98434.20
2022-08-17T18:22:22.785Z,98430.20
2022-08-17T18:25:20.581Z,98432.00
2022-08-17T18:28:18.064Z,98430.40
2022-08-17T18:31:16.663Z,98432.60
2022-08-17T18:34:35.810Z,98428.40
2022-08-17T18:37:31.684Z,98428.80
2022-08-17T18:40:29.201Z,98430.40
2022-08-17T18:43:26.686Z,98429.00
2022-08-17T18:46:28.123Z,98432.20
2022-08-17T18:49:26.876Z,98436.60
2022-08-17T18:52:24.862Z,98437.40
2022-08-17T18:55:23.876Z,98435.20
2022-08-17T18:58:22.059Z,98435.60
2022-08-17T19:01:20.707Z,98441.20
2022-08-17T19:04:19.690Z,98443.20
2022-08-17T19:07:17.219Z,98434.60
2022-08-17T19:10:14.707Z,98438.20
2022-08-17T19:13:12.934Z,98440.00
2022-08-17T19:16:15.271Z,98440.40
2022-08-17T19:19:14.125Z,98441.80
2022-08-17T19:22:11.611Z,98435.80
2022-08-17T19:25:11.158Z,98434.00
2022-08-17T19:28:22.499Z,98439.60
2022-08-17T19:31:20.327Z,98436.80
2022-08-17T19:34:32.328Z,98441.00
2022-08-17T19:37:31.687Z,98438.20
2022-08-17T19:40:51.727Z,98436.80
2022-08-17T19:43:50.751Z,98433.20
2022-08-17T19:46:49.825Z,98428.60
2022-08-17T19:49:48.155Z,98418.80
2022-08-17T19:52:46.874Z,98412.40
2022-08-17T19:55:44.728Z,98412.00
2022-08-17T19:58:45.265Z,98410.40
2022-08-17T20:01:44.785Z,98415.40
2022-08-17T20:04:42.309Z,98426.40
2022-08-17T20:07:39.867Z,98434.60
2022-08-17T20:10:37.549Z,98424.00
2022-08-17T20:13:35.185Z,98427.20
2022-08-17T20:16:32.774Z,98425.80
2022-08-17T20:19:30.272Z,98433.00
2022-08-17T20:22:27.771Z,98428.80
2022-08-17T20:25:30.375Z,98432.80
2022-08-17T20:28:29.784Z,98428.60
2022-08-17T20:31:30.865Z,98427.00
2022-08-17T20:34:34.968Z,98424.40
2022-08-17T20:37:35.254Z,98426.40
2022-08-17T20:40:32.751Z,98419.80
2022-08-17T20:43:30.471Z,98426.40
2022-08-17T20:46:28.294Z,98421.60
2022-08-17T20:49:27.423Z,98422.20
2022-08-17T20:52:28.742Z,98422.20
2022-08-17T20:55:28.935Z,98424.00
2022-08-17T20:58:30.982Z,98428.60
2022-08-17T21:01:29.536Z,98438.00
2022-08-17T21:04:27.950Z,98450.00
2022-08-17T21:07:26.116Z,98460.80
2022-08-17T21:10:24.220Z,98473.40
2022-08-17T21:13:24.001Z,98475.60
2022-08-17T21:16:22.029Z,98471.80
2022-08-17T21:19:22.103Z,98470.00
2022-08-17T21:22:20.238Z,98477.00
2022-08-17T21:25:17.951Z,98477.20
2022-08-17T21:28:15.470Z,98484.60
2022-08-17T21:31:15.336Z,98481.40
2022-08-17T21:34:12.820Z,98484.60
2022-08-17T21:37:10.288Z,98482.40
2022-08-17T21:40:07.860Z,98480.80
2022-08-17T21:43:05.569Z,98480.60
2022-08-17T21:46:03.416Z,98482.40
2022-08-17T21:49:02.341Z,98479.40
2022-08-17T21:52:06.720Z,98477.80
2022-08-17T21:55:04.210Z,98472.20
2022-08-17T21:58:14.178Z,98466.00
2022-08-17T22:01:12.802Z,98459.00
2022-08-17T22:04:11.428Z,98449.80
2022-08-17T22:07:09.095Z,98446.80
2022-08-17T22:10:06.578Z,98454.60
2022-08-17T22:13:04.607Z,98473.20
2022-08-17T22:16:02.074Z,98478.80
2022-08-17T22:19:09.040Z,98474.60
2022-08-17T22:22:06.517Z,98469.20
2022-08-17T22:25:04.215Z,98466.00
2022-08-17T22:28:01.768Z,98463.80
2022-08-17T22:30:59.231Z,98462.20
2022-08-17T22:33:56.736Z,98459.80
2022-08-17T22:36:54.226Z,98455.60
2022-08-17T22:39:51.729Z,98451.20
2022-08-17T22:42:49.239Z,98441.00
2022-08-17T22:45:46.764Z,98437.20
2022-08-17T22:48:44.270Z,98448.00
2022-08-17T22:51:41.742Z,98449.60
2022-08-17T22:54:56.856Z,98442.60
2022-08-17T22:58:12.059Z,98433.60
2022-08-17T23:01:09.528Z,98422.40
2022-08-17T23:04:07.028Z,98414.40
2022-08-17T23:07:05.227Z,98410.20
2022-08-17T23:10:06.546Z,98409.80
2022-08-17T23:13:06.625Z,98416.00
2022-08-17T23:16:04.090Z,98409.00
2022-08-17T23:19:01.598Z,98404.00
2022-08-17T23:21:59.061Z,98408.80
2022-08-17T23:24:58.554Z,98403.60
2022-08-17T23:27:56.085Z,98401.00
2022-08-17T23:30:53.563Z,98401.20
2022-08-17T23:33:51.439Z,98396.80
2022-08-17T23:36:52.459Z,98395.60
2022-08-17T23:39:51.308Z,98395.20
2022-08-17T23:42:49.473Z,98393.20
2022-08-17T23:45:48.373Z,98395.20
2022-08-17T23:48:47.747Z,98396.40
2022-08-17T23:51:45.920Z,98393.00
2022-08-17T23:54:44.764Z,98378.20
2022-08-17T23:57:42.673Z,98372.20
